North Collins, New York
Current Conditions -  °F | °C
As of 7:53 PM on Saturday 22 Nov 2014 (Local Time) from KDKK Reporting Station
Light Rain Light Rain  
Wind Chill: 34°   Ceiling: 2600
Heat Index: 43°   Visibility: 10mi
Dew Point: 39°   Wind: 20mph
Humidity: 86%   Direction: 190°S
Pressure: 30"   Gusts: 33mph
Location:  42.6°N, 78.94°W
Report Text: KDKK 230053Z AUTO 19017G29KT 10SM -RA OVC026 06/04 A3000 RMK AO2 PK WND 19029/0051 RAB25 SLP165 P0002 T00610039
Loading
Personal Weather Stations






























Interactive Weather Map New forecast layout! Learn more

10-Day Weather Forecast

Advertisements
Track Severe Weather on mobile